sensor_id;sensor_type;location;lat;lon;timestamp;pressure;altitude;pressure_sealevel;temperature;humidity
68456;BME280;55437;55.046;38.838;2023-08-21T00:00:08;99959.97;;;17.77;82.20
68456;BME280;55437;55.046;38.838;2023-08-21T00:02:37;99962.47;;;17.78;82.12
68456;BME280;55437;55.046;38.838;2023-08-21T00:05:03;99968.50;;;17.79;82.46
68456;BME280;55437;55.046;38.838;2023-08-21T00:07:30;99965.16;;;17.77;82.34
68456;BME280;55437;55.046;38.838;2023-08-21T00:09:56;99971.94;;;17.79;82.22
68456;BME280;55437;55.046;38.838;2023-08-21T00:12:22;99965.25;;;17.75;82.38
68456;BME280;55437;55.046;38.838;2023-08-21T00:14:48;99970.72;;;17.71;82.47
68456;BME280;55437;55.046;38.838;2023-08-21T00:17:13;99966.38;;;17.71;82.59
68456;BME280;55437;55.046;38.838;2023-08-21T00:19:39;99962.34;;;17.66;82.47
68456;BME280;55437;55.046;38.838;2023-08-21T00:22:05;99959.94;;;17.62;82.80
68456;BME280;55437;55.046;38.838;2023-08-21T00:24:31;99966.97;;;17.60;82.83
68456;BME280;55437;55.046;38.838;2023-08-21T00:26:57;99967.50;;;17.51;83.25
68456;BME280;55437;55.046;38.838;2023-08-21T00:29:22;99972.88;;;17.48;83.08
68456;BME280;55437;55.046;38.838;2023-08-21T00:31:48;99964.25;;;17.48;83.37
68456;BME280;55437;55.046;38.838;2023-08-21T00:34:14;99964.25;;;17.48;83.44
68456;BME280;55437;55.046;38.838;2023-08-21T00:36:40;99967.50;;;17.51;83.45
68456;BME280;55437;55.046;38.838;2023-08-21T00:39:07;99975.28;;;17.51;83.38
68456;BME280;55437;55.046;38.838;2023-08-21T00:41:33;99968.31;;;17.52;83.28
68456;BME280;55437;55.046;38.838;2023-08-21T00:44:00;99963.59;;;17.44;82.89
68456;BME280;55437;55.046;38.838;2023-08-21T00:46:26;99955.88;;;17.43;82.80
68456;BME280;55437;55.046;38.838;2023-08-21T00:48:52;99965.19;;;17.47;82.88
68456;BME280;55437;55.046;38.838;2023-08-21T00:51:19;99961.16;;;17.41;82.58
68456;BME280;55437;55.046;38.838;2023-08-21T00:53:45;99962.38;;;17.36;82.53
68456;BME280;55437;55.046;38.838;2023-08-21T00:56:13;99964.97;;;17.36;82.49
68456;BME280;55437;55.046;38.838;2023-08-21T00:58:39;99960.94;;;17.30;82.69
68456;BME280;55437;55.046;38.838;2023-08-21T01:01:05;99963.53;;;17.30;82.58
68456;BME280;55437;55.046;38.838;2023-08-21T01:03:31;99952.91;;;17.35;82.86
68456;BME280;55437;55.046;38.838;2023-08-21T01:05:57;99961.88;;;17.29;83.04
68456;BME280;55437;55.046;38.838;2023-08-21T01:08:36;99966.59;;;17.22;83.06
68456;BME280;55437;55.046;38.838;2023-08-21T01:11:33;99961.72;;;17.16;83.13
68456;BME280;55437;55.046;38.838;2023-08-21T01:16:35;99969.72;;;17.13;83.10
68456;BME280;55437;55.046;38.838;2023-08-21T01:19:03;99968.13;;;17.11;83.01
68456;BME280;55437;55.046;38.838;2023-08-21T01:21:34;99969.88;;;17.10;83.05
68456;BME280;55437;55.046;38.838;2023-08-21T01:24:00;99968.28;;;17.08;83.14
68456;BME280;55437;55.046;38.838;2023-08-21T01:26:26;99972.81;;;17.04;83.29
68456;BME280;55437;55.046;38.838;2023-08-21T01:28:52;99967.06;;;16.99;83.46
68456;BME280;55437;55.046;38.838;2023-08-21T01:31:25;99970.50;;;17.00;83.31
68456;BME280;55437;55.046;38.838;2023-08-21T01:33:55;99964.72;;;16.95;83.66
68456;BME280;55437;55.046;38.838;2023-08-21T01:36:42;99969.91;;;16.95;83.30
68456;BME280;55437;55.046;38.838;2023-08-21T01:39:09;99968.06;;;16.97;83.42
68456;BME280;55437;55.046;38.838;2023-08-21T01:41:37;99967.31;;;16.95;83.34
68456;BME280;55437;55.046;38.838;2023-08-21T01:44:03;99970.56;;;16.98;83.45
68456;BME280;55437;55.046;38.838;2023-08-21T01:46:29;99968.59;;;16.87;83.30
68456;BME280;55437;55.046;38.838;2023-08-21T01:48:55;99969.50;;;16.86;83.47
68456;BME280;55437;55.046;38.838;2023-08-21T01:51:21;99968.00;;;16.82;83.20
68456;BME280;55437;55.046;38.838;2023-08-21T01:53:47;99965.47;;;16.81;83.53
68456;BME280;55437;55.046;38.838;2023-08-21T01:56:13;99975.84;;;16.81;83.52
68456;BME280;55437;55.046;38.838;2023-08-21T01:58:39;99973.34;;;16.79;83.67
68456;BME280;55437;55.046;38.838;2023-08-21T02:01:04;99976.13;;;16.76;83.59
68456;BME280;55437;55.046;38.838;2023-08-21T02:03:30;99980.78;;;16.70;83.64
68456;BME280;55437;55.046;38.838;2023-08-21T02:05:56;99975.13;;;16.63;84.13
68456;BME280;55437;55.046;38.838;2023-08-21T02:08:29;99976.09;;;16.61;84.04
68456;BME280;55437;55.046;38.838;2023-08-21T02:10:56;99978.69;;;16.61;84.48
68456;BME280;55437;55.046;38.838;2023-08-21T02:13:22;99980.03;;;16.68;84.27
68456;BME280;55437;55.046;38.838;2023-08-21T02:15:48;99978.28;;;16.68;84.24
68456;BME280;55437;55.046;38.838;2023-08-21T02:18:34;99989.06;;;16.61;84.25
68456;BME280;55437;55.046;38.838;2023-08-21T02:21:01;99981.84;;;16.50;84.43
68456;BME280;55437;55.046;38.838;2023-08-21T02:23:27;99985.44;;;16.47;84.48
68456;BME280;55437;55.046;38.838;2023-08-21T02:25:54;99990.63;;;16.47;84.40
68456;BME280;55437;55.046;38.838;2023-08-21T02:28:21;99986.44;;;16.45;84.11
68456;BME280;55437;55.046;38.838;2023-08-21T02:30:47;99986.28;;;16.48;84.07
68456;BME280;55437;55.046;38.838;2023-08-21T02:33:13;99995.81;;;16.47;83.91
68456;BME280;55437;55.046;38.838;2023-08-21T02:35:39;99988.47;;;16.40;83.66
68456;BME280;55437;55.046;38.838;2023-08-21T02:38:06;99995.41;;;16.39;83.85
68456;BME280;55437;55.046;38.838;2023-08-21T02:40:36;99992.47;;;16.45;83.57
68456;BME280;55437;55.046;38.838;2023-08-21T02:43:02;99987.44;;;16.42;83.39
68456;BME280;55437;55.046;38.838;2023-08-21T02:45:28;99994.41;;;16.42;83.47
68456;BME280;55437;55.046;38.838;2023-08-21T02:47:57;99996.31;;;16.38;83.22
68456;BME280;55437;55.046;38.838;2023-08-21T02:50:48;100000.72;;;16.36;83.36
68456;BME280;55437;55.046;38.838;2023-08-21T02:53:14;99997.16;;;16.39;83.17
68456;BME280;55437;55.046;38.838;2023-08-21T02:55:40;100000.31;;;16.28;83.44
68456;BME280;55437;55.046;38.838;2023-08-21T02:58:06;99999.69;;;16.23;83.46
68456;BME280;55437;55.046;38.838;2023-08-21T03:00:32;99998.88;;;16.23;83.35
68456;BME280;55437;55.046;38.838;2023-08-21T03:02:57;99999.56;;;16.26;83.72
68456;BME280;55437;55.046;38.838;2023-08-21T03:05:25;100008.81;;;16.30;83.76
68456;BME280;55437;55.046;38.838;2023-08-21T03:07:51;100004.56;;;16.29;83.57
68456;BME280;55437;55.046;38.838;2023-08-21T03:10:18;100008.09;;;16.28;83.60
68456;BME280;55437;55.046;38.838;2023-08-21T03:12:44;100003.63;;;16.30;83.58
68456;BME280;55437;55.046;38.838;2023-08-21T03:15:10;100003.63;;;16.30;83.36
68456;BME280;55437;55.046;38.838;2023-08-21T03:17:36;100004.47;;;16.31;83.58
68456;BME280;55437;55.046;38.838;2023-08-21T03:20:02;100002.41;;;16.37;83.16
68456;BME280;55437;55.046;38.838;2023-08-21T03:22:31;100009.00;;;16.43;82.86
68456;BME280;55437;55.046;38.838;2023-08-21T03:25:15;100008.34;;;16.39;82.99
68456;BME280;55437;55.046;38.838;2023-08-21T03:27:42;100008.28;;;16.41;82.63
68456;BME280;55437;55.046;38.838;2023-08-21T03:30:15;100006.06;;;16.33;82.48
68456;BME280;55437;55.046;38.838;2023-08-21T03:32:41;100001.56;;;16.37;82.32
68456;BME280;55437;55.046;38.838;2023-08-21T03:35:07;99997.22;;;16.37;82.24
68456;BME280;55437;55.046;38.838;2023-08-21T03:37:35;99996.38;;;16.37;82.11
68456;BME280;55437;55.046;38.838;2023-08-21T03:40:03;99994.56;;;16.39;81.77
68456;BME280;55437;55.046;38.838;2023-08-21T03:42:30;99995.97;;;16.44;82.12
68456;BME280;55437;55.046;38.838;2023-08-21T03:44:56;99995.56;;;16.52;81.65
68456;BME280;55437;55.046;38.838;2023-08-21T03:47:23;99991.81;;;16.57;81.54
68456;BME280;55437;55.046;38.838;2023-08-21T03:49:56;99986.63;;;16.57;81.58
68456;BME280;55437;55.046;38.838;2023-08-21T03:52:24;99988.09;;;16.63;81.30
68456;BME280;55437;55.046;38.838;2023-08-21T03:54:50;99987.25;;;16.63;81.34
68456;BME280;55437;55.046;38.838;2023-08-21T03:57:16;99987.44;;;16.58;81.01
68456;BME280;55437;55.046;38.838;2023-08-21T03:59:42;99992.44;;;16.63;80.73
68456;BME280;55437;55.046;38.838;2023-08-21T04:02:08;99979.59;;;16.60;80.71
68456;BME280;55437;55.046;38.838;2023-08-21T04:04:33;99991.72;;;16.59;80.73
68456;BME280;55437;55.046;38.838;2023-08-21T04:06:59;99985.69;;;16.58;80.29
68456;BME280;55437;55.046;38.838;2023-08-21T04:09:25;99992.78;;;16.55;80.31
68456;BME280;55437;55.046;38.838;2023-08-21T04:11:51;99988.56;;;16.54;80.07
68456;BME280;55437;55.046;38.838;2023-08-21T04:14:17;99990.31;;;16.53;79.92
68456;BME280;55437;55.046;38.838;2023-08-21T04:16:42;99990.88;;;16.58;79.83
68456;BME280;55437;55.046;38.838;2023-08-21T04:19:08;99992.63;;;16.58;79.64
68456;BME280;55437;55.046;38.838;2023-08-21T04:21:34;99993.56;;;16.57;79.48
68456;BME280;55437;55.046;38.838;2023-08-21T04:24:00;99990.31;;;16.53;79.13
68456;BME280;55437;55.046;38.838;2023-08-21T04:26:26;99990.47;;;16.50;79.17
68456;BME280;55437;55.046;38.838;2023-08-21T04:28:52;99991.63;;;16.61;78.77
68456;BME280;55437;55.046;38.838;2023-08-21T04:31:19;99995.88;;;16.63;78.48
68456;BME280;55437;55.046;38.838;2023-08-21T04:33:48;99997.81;;;16.58;78.78
68456;BME280;55437;55.046;38.838;2023-08-21T04:36:15;99996.44;;;16.68;78.22
68456;BME280;55437;55.046;38.838;2023-08-21T04:38:42;100000.63;;;16.71;77.97
68456;BME280;55437;55.046;38.838;2023-08-21T04:41:08;99996.13;;;16.74;77.91
68456;BME280;55437;55.046;38.838;2023-08-21T04:43:37;99998.72;;;16.90;77.64
68456;BME280;55437;55.046;38.838;2023-08-21T04:46:04;99994.31;;;17.06;77.06
68456;BME280;55437;55.046;38.838;2023-08-21T04:48:31;100003.41;;;17.29;76.28
68456;BME280;55437;55.046;38.838;2023-08-21T04:50:56;99998.53;;;17.39;76.06
68456;BME280;55437;55.046;38.838;2023-08-21T04:53:22;100004.44;;;17.41;75.58
68456;BME280;55437;55.046;38.838;2023-08-21T04:55:48;100007.72;;;17.44;75.26
68456;BME280;55437;55.046;38.838;2023-08-21T04:58:14;100014.50;;;17.47;75.00
68456;BME280;55437;55.046;38.838;2023-08-21T05:00:41;100006.31;;;17.39;74.79
68456;BME280;55437;55.046;38.838;2023-08-21T05:03:07;100007.50;;;17.33;74.51
68456;BME280;55437;55.046;38.838;2023-08-21T05:05:35;100018.47;;;17.38;74.54
68456;BME280;55437;55.046;38.838;2023-08-21T05:08:01;100016.22;;;17.32;74.43
68456;BME280;55437;55.046;38.838;2023-08-21T05:10:28;100017.81;;;17.35;74.45
68456;BME280;55437;55.046;38.838;2023-08-21T05:12:57;100022.06;;;17.36;74.02
68456;BME280;55437;55.046;38.838;2023-08-21T05:15:23;100022.06;;;17.36;73.90
68456;BME280;55437;55.046;38.838;2023-08-21T05:17:48;100017.28;;;17.28;73.61
68456;BME280;55437;55.046;38.838;2023-08-21T05:20:14;100022.47;;;17.28;73.40
68456;BME280;55437;55.046;38.838;2023-08-21T05:22:41;100033.78;;;17.27;73.53
68456;BME280;55437;55.046;38.838;2023-08-21T05:25:09;100043.75;;;17.35;73.20
68456;BME280;55437;55.046;38.838;2023-08-21T05:27:35;100042.47;;;17.42;72.13
68456;BME280;55437;55.046;38.838;2023-08-21T05:30:01;100038.03;;;17.44;71.72
68456;BME280;55437;55.046;38.838;2023-08-21T05:32:30;100045.16;;;17.40;71.28
68456;BME280;55437;55.046;38.838;2023-08-21T05:34:56;100041.69;;;17.25;71.20
68456;BME280;55437;55.046;38.838;2023-08-21T05:37:22;100034.81;;;17.24;71.05
68456;BME280;55437;55.046;38.838;2023-08-21T05:39:49;100034.97;;;17.37;70.88
68456;BME280;55437;55.046;38.838;2023-08-21T05:42:15;100042.34;;;17.75;69.70
68456;BME280;55437;55.046;38.838;2023-08-21T05:44:42;100040.06;;;17.98;69.73
68456;BME280;55437;55.046;38.838;2023-08-21T05:47:08;100035.31;;;17.91;70.21
68456;BME280;55437;55.046;38.838;2023-08-21T05:49:35;100034.66;;;17.87;70.55
68456;BME280;55437;55.046;38.838;2023-08-21T05:52:01;100035.19;;;17.78;71.12
68456;BME280;55437;55.046;38.838;2023-08-21T05:54:27;100024.94;;;17.61;71.30
68456;BME280;55437;55.046;38.838;2023-08-21T05:56:52;100029.97;;;17.64;71.28
68456;BME280;55437;55.046;38.838;2023-08-21T05:59:30;100027.28;;;17.66;71.30
68456;BME280;55437;55.046;38.838;2023-08-21T06:01:58;100029.78;;;17.67;71.17
68456;BME280;55437;55.046;38.838;2023-08-21T06:04:29;100025.78;;;17.61;71.10
68456;BME280;55437;55.046;38.838;2023-08-21T06:07:00;100032.38;;;17.67;70.79
68456;BME280;55437;55.046;38.838;2023-08-21T06:09:27;100022.28;;;17.77;70.74
68456;BME280;55437;55.046;38.838;2023-08-21T06:11:55;100020.28;;;17.82;70.51
68456;BME280;55437;55.046;38.838;2023-08-21T06:14:21;100024.16;;;17.89;69.84
68456;BME280;55437;55.046;38.838;2023-08-21T06:17:03;100029.38;;;18.03;69.38
68456;BME280;55437;55.046;38.838;2023-08-21T06:19:29;100034.13;;;18.25;69.01
68456;BME280;55437;55.046;38.838;2023-08-21T06:21:55;100029.03;;;18.23;68.55
68456;BME280;55437;55.046;38.838;2023-08-21T06:24:22;100031.34;;;18.42;67.87
68456;BME280;55437;55.046;38.838;2023-08-21T06:26:53;100035.28;;;18.35;67.43
68456;BME280;55437;55.046;38.838;2023-08-21T06:29:19;100032.28;;;18.27;67.69
68456;BME280;55437;55.046;38.838;2023-08-21T06:31:48;100034.16;;;18.11;67.14
68456;BME280;55437;55.046;38.838;2023-08-21T06:34:15;100029.03;;;18.09;66.79
68456;BME280;55437;55.046;38.838;2023-08-21T06:36:41;100032.69;;;19.04;64.95
68456;BME280;55437;55.046;38.838;2023-08-21T06:39:07;100039.44;;;19.61;64.06
68456;BME280;55437;55.046;38.838;2023-08-21T06:41:32;100036.78;;;20.26;62.41
68456;BME280;55437;55.046;38.838;2023-08-21T06:43:58;100036.50;;;20.79;61.26
68456;BME280;55437;55.046;38.838;2023-08-21T06:46:26;100042.63;;;20.91;60.59
68456;BME280;55437;55.046;38.838;2023-08-21T06:48:52;100034.88;;;20.53;60.63
68456;BME280;55437;55.046;38.838;2023-08-21T06:51:18;100035.50;;;20.19;61.71
68456;BME280;55437;55.046;38.838;2023-08-21T06:53:44;100033.13;;;19.90;62.04
68456;BME280;55437;55.046;38.838;2023-08-21T06:56:10;100031.75;;;19.72;62.54
68456;BME280;55437;55.046;38.838;2023-08-21T06:58:36;100040.69;;;19.55;62.38
68456;BME280;55437;55.046;38.838;2023-08-21T07:01:02;100037.47;;;19.37;62.67
68456;BME280;55437;55.046;38.838;2023-08-21T07:03:27;100038.31;;;19.38;62.89
68456;BME280;55437;55.046;38.838;2023-08-21T07:05:57;100036.13;;;19.32;62.95
68456;BME280;55437;55.046;38.838;2023-08-21T07:08:24;100026.25;;;19.89;61.49
68456;BME280;55437;55.046;38.838;2023-08-21T07:10:50;100046.16;;;20.90;58.55
68456;BME280;55437;55.046;38.838;2023-08-21T07:13:16;100027.66;;;21.65;56.15
68456;BME280;55437;55.046;38.838;2023-08-21T07:15:43;100028.38;;;22.02;54.71
68456;BME280;55437;55.046;38.838;2023-08-21T07:18:09;100023.25;;;22.11;53.42
68456;BME280;55437;55.046;38.838;2023-08-21T07:21:03;100034.06;;;22.85;52.19
68456;BME280;55437;55.046;38.838;2023-08-21T07:23:30;100032.25;;;23.40;50.67
68456;BME280;55437;55.046;38.838;2023-08-21T07:25:58;100024.25;;;23.73;49.53
68456;BME280;55437;55.046;38.838;2023-08-21T07:28:24;100024.00;;;24.06;48.12
68456;BME280;55437;55.046;38.838;2023-08-21T07:30:59;100034.16;;;24.21;46.27
68456;BME280;55437;55.046;38.838;2023-08-21T07:33:26;100034.50;;;24.06;47.19
68456;BME280;55437;55.046;38.838;2023-08-21T07:36:06;100028.28;;;24.28;46.67
68456;BME280;55437;55.046;38.838;2023-08-21T07:38:32;100024.50;;;24.52;46.20
68456;BME280;55437;55.046;38.838;2023-08-21T07:41:05;100021.03;;;25.01;45.48
68456;BME280;55437;55.046;38.838;2023-08-21T07:43:33;100027.44;;;25.08;45.40
68456;BME280;55437;55.046;38.838;2023-08-21T07:46:06;100026.06;;;25.23;44.65
68456;BME280;55437;55.046;38.838;2023-08-21T07:48:34;100031.03;;;24.97;44.86
68456;BME280;55437;55.046;38.838;2023-08-21T07:51:00;100037.25;;;24.96;44.75
68456;BME280;55437;55.046;38.838;2023-08-21T07:53:26;100033.75;;;24.86;44.63
68456;BME280;55437;55.046;38.838;2023-08-21T07:55:52;100028.66;;;25.13;44.66
68456;BME280;55437;55.046;38.838;2023-08-21T07:58:18;100031.22;;;24.75;45.46
68456;BME280;55437;55.046;38.838;2023-08-21T08:01:09;100019.13;;;25.12;44.36
68456;BME280;55437;55.046;38.838;2023-08-21T08:03:35;100032.69;;;25.08;44.69
68456;BME280;55437;55.046;38.838;2023-08-21T08:06:01;100021.22;;;25.19;44.40
68456;BME280;55437;55.046;38.838;2023-08-21T08:08:27;100015.81;;;25.68;43.42
68456;BME280;55437;55.046;38.838;2023-08-21T08:10:54;100020.97;;;24.72;44.89
68456;BME280;55437;55.046;38.838;2023-08-21T08:13:21;100013.25;;;23.47;46.94
68456;BME280;55437;55.046;38.838;2023-08-21T08:15:46;100020.03;;;23.50;47.20
68456;BME280;55437;55.046;38.838;2023-08-21T08:18:13;100019.69;;;23.96;46.87
68456;BME280;55437;55.046;38.838;2023-08-21T08:20:40;100017.63;;;24.60;45.47
68456;BME280;55437;55.046;38.838;2023-08-21T08:23:07;100024.91;;;24.87;44.27
68456;BME280;55437;55.046;38.838;2023-08-21T08:25:33;100014.56;;;24.55;44.74
68456;BME280;55437;55.046;38.838;2023-08-21T08:27:59;100017.56;;;24.11;45.68
68456;BME280;55437;55.046;38.838;2023-08-21T08:30:25;100019.91;;;23.30;46.83
68456;BME280;55437;55.046;38.838;2023-08-21T08:32:51;100012.75;;;22.89;47.92
68456;BME280;55437;55.046;38.838;2023-08-21T08:35:20;100009.78;;;22.83;48.53
68456;BME280;55437;55.046;38.838;2023-08-21T08:37:46;100013.84;;;22.64;49.17
68456;BME280;55437;55.046;38.838;2023-08-21T08:40:12;100013.22;;;22.72;48.10
68456;BME280;55437;55.046;38.838;2023-08-21T08:42:38;99997.56;;;23.15;47.34
68456;BME280;55437;55.046;38.838;2023-08-21T08:45:05;100002.41;;;23.20;47.99
68456;BME280;55437;55.046;38.838;2023-08-21T08:47:35;100013.25;;;22.83;49.10
68456;BME280;55437;55.046;38.838;2023-08-21T08:50:07;99998.88;;;22.11;50.40
68456;BME280;55437;55.046;38.838;2023-08-21T08:52:38;99999.09;;;21.85;50.47
68456;BME280;55437;55.046;38.838;2023-08-21T08:55:05;99992.94;;;21.98;50.79
68456;BME280;55437;55.046;38.838;2023-08-21T08:57:34;99990.25;;;21.75;51.47
68456;BME280;55437;55.046;38.838;2023-08-21T09:00:05;99994.44;;;21.89;51.46
68456;BME280;55437;55.046;38.838;2023-08-21T09:02:35;99996.59;;;21.84;51.84
68456;BME280;55437;55.046;38.838;2023-08-21T09:05:02;100001.13;;;21.47;52.25
68456;BME280;55437;55.046;38.838;2023-08-21T09:07:32;100001.31;;;21.09;52.72
68456;BME280;55437;55.046;38.838;2023-08-21T09:09:58;100002.66;;;20.78;53.15
68456;BME280;55437;55.046;38.838;2023-08-21T09:12:24;99997.50;;;20.89;52.90
68456;BME280;55437;55.046;38.838;2023-08-21T09:14:51;99992.91;;;21.16;52.63
68456;BME280;55437;55.046;38.838;2023-08-21T09:17:17;99988.06;;;21.47;51.61
68456;BME280;55437;55.046;38.838;2023-08-21T09:19:43;99984.66;;;21.58;50.19
68456;BME280;55437;55.046;38.838;2023-08-21T09:24:37;99995.31;;;21.54;51.07
68456;BME280;55437;55.046;38.838;2023-08-21T09:27:03;99993.59;;;21.31;51.64
68456;BME280;55437;55.046;38.838;2023-08-21T09:29:39;99996.34;;;20.93;51.59
68456;BME280;55437;55.046;38.838;2023-08-21T09:32:25;100008.44;;;20.70;51.96
68456;BME280;55437;55.046;38.838;2023-08-21T09:34:51;99995.50;;;20.69;51.70
68456;BME280;55437;55.046;38.838;2023-08-21T09:37:17;99992.19;;;20.91;50.78
68456;BME280;55437;55.046;38.838;2023-08-21T09:39:45;99993.13;;;21.13;50.32
68456;BME280;55437;55.046;38.838;2023-08-21T09:42:13;99988.31;;;21.20;50.36
68456;BME280;55437;55.046;38.838;2023-08-21T09:44:40;99995.59;;;21.28;49.98
68456;BME280;55437;55.046;38.838;2023-08-21T09:47:10;99987.91;;;21.13;50.01
68456;BME280;55437;55.046;38.838;2023-08-21T09:49:38;99994.53;;;21.30;49.72
68456;BME280;55437;55.046;38.838;2023-08-21T09:52:08;99985.91;;;21.41;50.18
68456;BME280;55437;55.046;38.838;2023-08-21T09:54:56;99987.94;;;21.37;49.93
68456;BME280;55437;55.046;38.838;2023-08-21T09:57:23;99984.97;;;21.18;49.97
68456;BME280;55437;55.046;38.838;2023-08-21T09:59:53;99990.66;;;21.12;50.20
68456;BME280;55437;55.046;38.838;2023-08-21T10:02:38;99990.63;;;21.25;50.48
68456;BME280;55437;55.046;38.838;2023-08-21T10:05:05;99988.31;;;21.20;50.50
68456;BME280;55437;55.046;38.838;2023-08-21T10:07:31;99989.28;;;21.19;50.74
68456;BME280;55437;55.046;38.838;2023-08-21T10:09:59;99983.13;;;21.07;51.26
68456;BME280;55437;55.046;38.838;2023-08-21T10:12:26;99976.31;;;20.94;51.65
68456;BME280;55437;55.046;38.838;2023-08-21T10:14:52;99978.25;;;20.79;51.84
68456;BME280;55437;55.046;38.838;2023-08-21T10:17:18;99983.56;;;20.77;51.83
68456;BME280;55437;55.046;38.838;2023-08-21T10:19:51;99983.34;;;20.80;50.91
68456;BME280;55437;55.046;38.838;2023-08-21T10:22:45;99970.31;;;21.04;51.40
68456;BME280;55437;55.046;38.838;2023-08-21T10:25:22;99967.91;;;21.49;49.71
68456;BME280;55437;55.046;38.838;2023-08-21T10:27:54;99976.59;;;21.61;49.37
68456;BME280;55437;55.046;38.838;2023-08-21T10:30:27;99967.53;;;21.53;49.22
68456;BME280;55437;55.046;38.838;2023-08-21T10:32:54;99977.59;;;21.36;49.42
68456;BME280;55437;55.046;38.838;2023-08-21T10:35:31;99966.97;;;21.26;50.41
68456;BME280;55437;55.046;38.838;2023-08-21T10:38:16;99973.28;;;21.24;50.30
68456;BME280;55437;55.046;38.838;2023-08-21T10:41:06;99977.31;;;21.28;49.70
68456;BME280;55437;55.046;38.838;2023-08-21T10:46:05;99970.09;;;21.31;48.40
68456;BME280;55437;55.046;38.838;2023-08-21T10:48:31;99963.44;;;21.38;48.36
68456;BME280;55437;55.046;38.838;2023-08-21T10:51:17;99962.78;;;21.47;48.27
68456;BME280;55437;55.046;38.838;2023-08-21T10:53:43;99953.53;;;21.54;48.00
68456;BME280;55437;55.046;38.838;2023-08-21T10:56:09;99963.28;;;21.75;47.68
68456;BME280;55437;55.046;38.838;2023-08-21T10:58:38;99962.84;;;21.92;47.60
68456;BME280;55437;55.046;38.838;2023-08-21T11:01:04;99961.22;;;22.02;48.26
68456;BME280;55437;55.046;38.838;2023-08-21T11:03:30;99956.66;;;21.93;48.20
68456;BME280;55437;55.046;38.838;2023-08-21T11:06:07;99959.25;;;21.71;48.31
68456;BME280;55437;55.046;38.838;2023-08-21T11:08:34;99957.56;;;21.47;48.61
68456;BME280;55437;55.046;38.838;2023-08-21T11:11:05;99954.91;;;21.36;48.44
68456;BME280;55437;55.046;38.838;2023-08-21T11:13:32;99965.09;;;21.28;48.82
68456;BME280;55437;55.046;38.838;2023-08-21T11:16:05;99958.84;;;21.18;48.58
68456;BME280;55437;55.046;38.838;2023-08-21T11:18:37;99955.75;;;21.13;48.33
68456;BME280;55437;55.046;38.838;2023-08-21T11:21:11;99951.47;;;21.12;48.73
68456;BME280;55437;55.046;38.838;2023-08-21T11:23:39;99954.38;;;21.20;48.84
68456;BME280;55437;55.046;38.838;2023-08-21T11:26:06;99945.97;;;21.28;48.36
68456;BME280;55437;55.046;38.838;2023-08-21T11:28:33;99942.44;;;21.40;47.26
68456;BME280;55437;55.046;38.838;2023-08-21T11:30:59;99940.34;;;21.56;47.38
68456;BME280;55437;55.046;38.838;2023-08-21T11:33:26;99937.97;;;21.75;47.17
68456;BME280;55437;55.046;38.838;2023-08-21T11:35:54;99949.06;;;21.90;47.07
68456;BME280;55437;55.046;38.838;2023-08-21T11:38:22;99948.97;;;22.03;47.12
68456;BME280;55437;55.046;38.838;2023-08-21T11:40:55;99947.16;;;21.92;48.10
68456;BME280;55437;55.046;38.838;2023-08-21T11:43:22;99946.19;;;21.71;48.34
68456;BME280;55437;55.046;38.838;2023-08-21T11:45:48;99946.16;;;21.48;48.50
68456;BME280;55437;55.046;38.838;2023-08-21T11:48:14;99939.78;;;21.29;48.47
68456;BME280;55437;55.046;38.838;2023-08-21T11:50:41;99942.16;;;21.20;48.30
68456;BME280;55437;55.046;38.838;2023-08-21T11:53:07;99945.38;;;21.24;48.44
68456;BME280;55437;55.046;38.838;2023-08-21T11:55:34;99936.38;;;21.39;48.33
68456;BME280;55437;55.046;38.838;2023-08-21T11:58:01;99938.66;;;21.44;48.23
68456;BME280;55437;55.046;38.838;2023-08-21T12:00:30;99931.88;;;21.41;47.67
68456;BME280;55437;55.046;38.838;2023-08-21T12:02:58;99933.94;;;21.49;47.84
68456;BME280;55437;55.046;38.838;2023-08-21T12:05:49;99930.75;;;21.68;47.89
68456;BME280;55437;55.046;38.838;2023-08-21T12:08:34;99929.19;;;21.76;47.52
68456;BME280;55437;55.046;38.838;2023-08-21T12:11:00;99926.25;;;21.81;47.34
68456;BME280;55437;55.046;38.838;2023-08-21T12:13:26;99928.38;;;21.76;47.04
68456;BME280;55437;55.046;38.838;2023-08-21T12:15:52;99925.50;;;21.56;46.25
68456;BME280;55437;55.046;38.838;2023-08-21T12:18:17;99926.19;;;21.36;47.03
68456;BME280;55437;55.046;38.838;2023-08-21T12:20:43;99921.44;;;21.17;48.30
68456;BME280;55437;55.046;38.838;2023-08-21T12:23:09;99924.66;;;21.10;48.58
68456;BME280;55437;55.046;38.838;2023-08-21T12:25:35;99922.97;;;21.09;48.64
68456;BME280;55437;55.046;38.838;2023-08-21T12:28:01;99915.63;;;21.14;48.58
68456;BME280;55437;55.046;38.838;2023-08-21T12:30:27;99907.88;;;21.25;47.75
68456;BME280;55437;55.046;38.838;2023-08-21T12:32:53;99912.97;;;21.38;47.76
68456;BME280;55437;55.046;38.838;2023-08-21T12:35:19;99907.19;;;21.45;47.81
68456;BME280;55437;55.046;38.838;2023-08-21T12:37:45;99905.53;;;21.44;47.65
68456;BME280;55437;55.046;38.838;2023-08-21T12:40:11;99905.97;;;21.38;47.83
68456;BME280;55437;55.046;38.838;2023-08-21T12:42:37;99903.84;;;21.32;47.65
68456;BME280;55437;55.046;38.838;2023-08-21T12:45:03;99900.16;;;21.24;47.91
68456;BME280;55437;55.046;38.838;2023-08-21T12:47:30;99900.94;;;21.13;48.34
68456;BME280;55437;55.046;38.838;2023-08-21T12:49:56;99905.13;;;21.03;47.74
68456;BME280;55437;55.046;38.838;2023-08-21T12:52:22;99898.97;;;21.04;47.65
68456;BME280;55437;55.046;38.838;2023-08-21T12:54:48;99895.41;;;21.05;47.69
68456;BME280;55437;55.046;38.838;2023-08-21T12:57:14;99889.66;;;21.12;47.14